createdAt,value
2022-12-25T00:00:46.386Z,5.63
2022-12-25T00:06:16.126Z,5.61
2022-12-25T00:11:23.396Z,5.64
2022-12-25T00:16:30.543Z,5.65
2022-12-25T00:21:37.768Z,5.67
2022-12-25T00:26:44.833Z,5.70
2022-12-25T00:31:52.003Z,5.73
2022-12-25T00:36:58.960Z,5.73
2022-12-25T00:42:21.394Z,5.73
2022-12-25T00:47:30.565Z,5.78
2022-12-25T00:52:37.620Z,5.83
2022-12-25T00:57:44.588Z,5.89
2022-12-25T01:02:51.712Z,5.93
2022-12-25T01:07:58.882Z,5.91
2022-12-25T01:13:05.767Z,5.82
2022-12-25T01:18:13.067Z,5.76
2022-12-25T01:23:20.426Z,5.71
2022-12-25T01:28:27.373Z,5.65
2022-12-25T01:33:35.750Z,5.58
2022-12-25T01:38:42.999Z,5.48
2022-12-25T01:44:05.771Z,5.36
2022-12-25T01:49:16.335Z,5.28
2022-12-25T01:54:28.388Z,5.24
2022-12-25T01:59:35.833Z,5.14
2022-12-25T02:04:49.447Z,5.00
2022-12-25T02:09:57.053Z,4.84
2022-12-25T02:15:07.038Z,4.72
2022-12-25T02:20:41.443Z,4.56
2022-12-25T02:26:04.623Z,4.44
2022-12-25T02:31:14.934Z,4.40
2022-12-25T02:36:27.943Z,4.38
2022-12-25T02:41:40.606Z,4.38
2022-12-25T02:47:05.906Z,4.48
2022-12-25T02:52:34.323Z,4.54
2022-12-25T02:58:04.425Z,4.63
2022-12-25T03:03:31.860Z,4.73
2022-12-25T03:08:43.541Z,4.76
2022-12-25T03:13:53.349Z,4.65
2022-12-25T03:19:21.330Z,4.61
2022-12-25T03:24:46.137Z,4.55
2022-12-25T03:30:11.021Z,4.50
2022-12-25T03:35:25.648Z,4.40
2022-12-25T03:40:58.128Z,4.41
2022-12-25T03:46:28.681Z,4.41
2022-12-25T03:51:58.569Z,4.38
2022-12-25T03:57:23.596Z,4.29
2022-12-25T04:02:48.297Z,4.17
2022-12-25T04:08:13.276Z,4.11
2022-12-25T04:13:47.033Z,4.03
2022-12-25T04:19:11.543Z,4.01
2022-12-25T04:24:36.448Z,3.95
2022-12-25T04:30:00.921Z,3.86
2022-12-25T04:35:26.757Z,3.98
2022-12-25T04:40:34.186Z,4.05
2022-12-25T04:45:41.116Z,4.06
2022-12-25T04:50:48.203Z,4.04
2022-12-25T04:56:03.526Z,4.05
2022-12-25T05:01:10.940Z,4.06
2022-12-25T05:06:17.979Z,4.07
2022-12-25T05:11:24.790Z,4.07
2022-12-25T05:16:31.836Z,4.09
2022-12-25T05:21:38.930Z,4.07
2022-12-25T05:26:45.921Z,3.96
2022-12-25T05:31:52.830Z,3.92
2022-12-25T05:36:59.972Z,3.84
2022-12-25T05:42:07.064Z,3.73
2022-12-25T05:47:13.991Z,3.65
2022-12-25T05:52:20.837Z,3.56
2022-12-25T05:57:29.155Z,3.45
2022-12-25T06:02:40.354Z,3.35
2022-12-25T06:07:47.581Z,3.24
2022-12-25T06:12:56.650Z,3.15
2022-12-25T06:18:03.992Z,3.04
2022-12-25T06:23:11.402Z,2.99
2022-12-25T06:28:18.414Z,2.98
2022-12-25T06:33:25.303Z,2.90
2022-12-25T06:38:32.702Z,2.78
2022-12-25T06:43:40.267Z,2.67
2022-12-25T06:48:49.603Z,2.51
2022-12-25T06:53:58.120Z,2.33
2022-12-25T06:59:07.015Z,2.14
2022-12-25T07:04:18.219Z,2.00
2022-12-25T07:09:25.147Z,1.89
2022-12-25T07:14:32.328Z,1.72
2022-12-25T07:19:44.696Z,1.59
2022-12-25T07:24:52.509Z,1.50
2022-12-25T07:29:59.387Z,1.43
2022-12-25T07:35:07.310Z,1.35
2022-12-25T07:40:15.183Z,1.31
2022-12-25T07:45:22.338Z,1.31
2022-12-25T07:50:29.277Z,1.28
2022-12-25T07:55:36.351Z,1.30
2022-12-25T08:00:43.297Z,1.34
2022-12-25T08:05:50.510Z,1.39
2022-12-25T08:10:57.501Z,1.43
2022-12-25T08:16:07.952Z,1.52
2022-12-25T08:21:16.005Z,1.60
2022-12-25T08:26:25.067Z,1.71
2022-12-25T08:31:33.461Z,1.87
2022-12-25T08:36:42.977Z,2.02
2022-12-25T08:41:50.258Z,2.14
2022-12-25T08:46:57.189Z,2.31
2022-12-25T08:52:04.075Z,2.50
2022-12-25T08:57:11.087Z,2.71
2022-12-25T09:02:19.790Z,2.92
2022-12-25T09:07:27.657Z,3.04
2022-12-25T09:12:37.927Z,3.13
2022-12-25T09:17:44.935Z,3.25
2022-12-25T09:22:52.099Z,3.41
2022-12-25T09:27:59.874Z,3.54
2022-12-25T09:33:07.251Z,3.73
2022-12-25T09:38:14.183Z,3.91
2022-12-25T09:43:24.635Z,4.08
2022-12-25T09:48:34.899Z,4.27
2022-12-25T09:53:46.358Z,4.43
2022-12-25T09:58:54.839Z,4.54
2022-12-25T10:04:40.614Z,4.65
2022-12-25T10:10:00.909Z,4.79
2022-12-25T10:15:31.102Z,4.89
2022-12-25T10:20:47.047Z,5.01
2022-12-25T10:25:55.274Z,5.10
2022-12-25T10:31:16.905Z,5.20
2022-12-25T10:36:26.998Z,5.33
2022-12-25T10:41:54.529Z,5.43
2022-12-25T10:47:03.213Z,5.56
2022-12-25T10:52:23.406Z,5.69
2022-12-25T10:57:30.538Z,5.84
2022-12-25T11:02:41.820Z,5.96
2022-12-25T11:07:55.123Z,6.09
2022-12-25T11:13:06.303Z,6.21
2022-12-25T11:18:25.592Z,6.34
2022-12-25T11:23:35.067Z,6.43
2022-12-25T11:28:45.965Z,6.56
2022-12-25T11:34:00.297Z,6.67
2022-12-25T11:39:21.749Z,6.78
2022-12-25T11:44:43.639Z,6.91
2022-12-25T11:49:53.961Z,7.05
2022-12-25T11:55:17.285Z,7.17
2022-12-25T12:00:26.635Z,7.29
2022-12-25T12:05:40.201Z,7.47
2022-12-25T12:11:16.095Z,7.66
2022-12-25T12:16:24.013Z,7.89
2022-12-25T12:21:32.819Z,8.10
2022-12-25T12:26:42.641Z,8.31
2022-12-25T12:31:52.290Z,8.61
2022-12-25T12:37:06.132Z,8.94
2022-12-25T12:42:20.157Z,9.23
2022-12-25T12:53:27.959Z,9.51
2022-12-25T12:58:45.329Z,9.49
2022-12-25T13:04:17.241Z,9.52
2022-12-25T13:09:36.681Z,9.62
2022-12-25T13:14:50.386Z,9.72
2022-12-25T13:20:02.403Z,9.86
2022-12-25T13:25:22.474Z,9.81
2022-12-25T13:30:34.164Z,9.61
2022-12-25T13:35:48.005Z,9.40
2022-12-25T13:41:16.693Z,9.24
2022-12-25T13:46:28.576Z,9.05
2022-12-25T13:51:35.868Z,8.91
2022-12-25T13:56:53.480Z,8.79
2022-12-25T14:02:04.282Z,8.62
2022-12-25T14:07:13.665Z,8.53
2022-12-25T14:12:21.417Z,8.41
2022-12-25T14:17:29.491Z,8.24
2022-12-25T14:22:38.690Z,8.05
2022-12-25T14:27:51.757Z,7.90
2022-12-25T14:32:59.954Z,7.80
2022-12-25T14:38:11.654Z,7.69
2022-12-25T14:43:26.952Z,7.58
2022-12-25T14:48:34.880Z,7.47
2022-12-25T14:53:51.364Z,7.36
2022-12-25T14:59:00.134Z,7.25
2022-12-25T15:04:14.390Z,7.16
2022-12-25T15:09:21.367Z,7.06
2022-12-25T15:14:32.182Z,6.99
2022-12-25T15:19:46.074Z,6.94
2022-12-25T15:25:00.372Z,6.86
2022-12-25T15:30:11.407Z,6.81
2022-12-25T15:35:22.294Z,6.75
2022-12-25T15:40:30.403Z,6.70
2022-12-25T15:45:38.393Z,6.65
2022-12-25T15:50:46.932Z,6.58
2022-12-25T15:55:54.229Z,6.47
2022-12-25T16:01:01.473Z,6.41
2022-12-25T16:06:11.097Z,6.37
2022-12-25T16:11:18.066Z,6.33
2022-12-25T16:16:25.899Z,6.29
2022-12-25T16:21:42.257Z,6.24
2022-12-25T16:26:49.484Z,6.21
2022-12-25T16:31:56.928Z,6.20
2022-12-25T16:37:04.465Z,6.20
2022-12-25T16:42:12.527Z,6.20
2022-12-25T16:47:24.004Z,6.19
2022-12-25T16:52:31.730Z,6.18
2022-12-25T16:57:40.905Z,6.18
2022-12-25T17:02:51.585Z,6.17
2022-12-25T17:08:04.105Z,6.14
2022-12-25T17:13:13.485Z,6.13
2022-12-25T17:18:22.539Z,6.12
2022-12-25T17:23:32.210Z,6.09
2022-12-25T17:28:42.373Z,6.08
2022-12-25T17:33:50.095Z,6.05
2022-12-25T17:39:04.609Z,6.03
2022-12-25T17:44:15.145Z,6.00
2022-12-25T17:49:23.614Z,5.97
2022-12-25T17:54:30.804Z,5.96
2022-12-25T17:59:37.795Z,5.92
2022-12-25T18:04:45.080Z,5.89
2022-12-25T18:09:51.954Z,5.86
2022-12-25T18:14:58.976Z,5.83
2022-12-25T18:20:07.137Z,5.81
2022-12-25T18:25:14.148Z,5.78
2022-12-25T18:30:21.518Z,5.76
2022-12-25T18:35:29.977Z,5.74
2022-12-25T18:40:40.685Z,5.73
2022-12-25T18:45:47.584Z,5.74
2022-12-25T18:50:59.516Z,5.73
2022-12-25T18:56:10.748Z,5.73
2022-12-25T19:01:19.486Z,5.74
2022-12-25T19:06:29.787Z,5.73
2022-12-25T19:11:42.062Z,5.72
2022-12-25T19:16:52.284Z,5.70
2022-12-25T19:22:00.034Z,5.71
2022-12-25T19:27:07.454Z,5.73
2022-12-25T19:32:14.419Z,5.76
2022-12-25T19:37:21.408Z,5.79
2022-12-25T19:42:28.330Z,5.82
2022-12-25T19:47:35.333Z,5.85
2022-12-25T19:52:42.161Z,5.87
2022-12-25T19:57:49.010Z,5.88
2022-12-25T20:02:56.003Z,5.88
2022-12-25T20:08:04.418Z,5.85
2022-12-25T20:13:11.350Z,5.78
2022-12-25T20:18:18.481Z,5.71
2022-12-25T20:23:25.783Z,5.63
2022-12-25T20:28:34.554Z,5.59
2022-12-25T20:33:42.178Z,5.57
2022-12-25T20:38:49.275Z,5.57
2022-12-25T20:43:56.465Z,5.57
2022-12-25T20:49:03.802Z,5.57
2022-12-25T20:54:12.782Z,5.57
2022-12-25T20:59:19.751Z,5.58
2022-12-25T21:04:29.233Z,5.59
2022-12-25T21:09:36.730Z,5.62
2022-12-25T21:14:43.700Z,5.63
2022-12-25T21:19:50.763Z,5.66
2022-12-25T21:24:57.731Z,5.69
2022-12-25T21:30:14.257Z,5.73
2022-12-25T21:35:22.946Z,5.77
2022-12-25T21:40:30.343Z,5.82
2022-12-25T21:45:37.595Z,5.85
2022-12-25T21:51:02.397Z,5.89
2022-12-25T21:56:09.977Z,5.91
2022-12-25T22:01:17.543Z,5.94
2022-12-25T22:06:43.946Z,5.96
2022-12-25T22:12:08.633Z,5.99
2022-12-25T22:17:33.541Z,6.00
2022-12-25T22:22:40.602Z,6.01
2022-12-25T22:27:48.763Z,6.02
2022-12-25T22:32:56.431Z,6.01
2022-12-25T22:38:03.306Z,6.01
2022-12-25T22:43:10.246Z,6.00
2022-12-25T22:48:17.360Z,5.99
2022-12-25T22:53:24.414Z,5.99
2022-12-25T22:58:32.582Z,6.01
2022-12-25T23:03:40.094Z,6.03
2022-12-25T23:08:52.909Z,6.03
2022-12-25T23:14:18.156Z,6.05
2022-12-25T23:19:43.464Z,6.06
2022-12-25T23:25:09.795Z,6.09
2022-12-25T23:30:22.882Z,6.11
2022-12-25T23:35:30.201Z,6.11
2022-12-25T23:40:37.623Z,6.12
2022-12-25T23:45:44.885Z,6.14
2022-12-25T23:50:52.169Z,6.16
2022-12-25T23:55:59.955Z,6.19
